sensor_id;sensor_type;location;lat;lon;timestamp;P1;durP1;ratioP1;P2;durP2;ratioP2
77148;SDS011;66122;47.130;16.844;2023-03-14T00:02:28;3.70;;;0.70;;
77148;SDS011;66122;47.130;16.844;2023-03-14T00:12:30;3.23;;;0.90;;
77148;SDS011;66122;47.130;16.844;2023-03-14T00:22:34;3.50;;;1.10;;
77148;SDS011;66122;47.130;16.844;2023-03-14T00:32:37;2.95;;;0.77;;
77148;SDS011;66122;47.130;16.844;2023-03-14T00:42:40;3.53;;;1.00;;
77148;SDS011;66122;47.130;16.844;2023-03-14T00:52:42;3.27;;;0.87;;
77148;SDS011;66122;47.130;16.844;2023-03-14T01:02:45;5.68;;;0.80;;
77148;SDS011;66122;47.130;16.844;2023-03-14T01:12:48;3.33;;;0.83;;
77148;SDS011;66122;47.130;16.844;2023-03-14T01:22:50;3.17;;;0.93;;
77148;SDS011;66122;47.130;16.844;2023-03-14T01:32:53;3.50;;;0.90;;
77148;SDS011;66122;47.130;16.844;2023-03-14T01:42:56;5.05;;;1.17;;
77148;SDS011;66122;47.130;16.844;2023-03-14T01:53:00;4.00;;;1.30;;
77148;SDS011;66122;47.130;16.844;2023-03-14T02:03:05;5.43;;;0.97;;
77148;SDS011;66122;47.130;16.844;2023-03-14T02:13:12;2.67;;;0.80;;
77148;SDS011;66122;47.130;16.844;2023-03-14T02:23:40;5.20;;;1.27;;
77148;SDS011;66122;47.130;16.844;2023-03-14T02:33:55;4.27;;;1.30;;
77148;SDS011;66122;47.130;16.844;2023-03-14T02:43:59;5.60;;;1.35;;
77148;SDS011;66122;47.130;16.844;2023-03-14T02:54:02;5.33;;;1.37;;
77148;SDS011;66122;47.130;16.844;2023-03-14T03:04:04;3.07;;;1.13;;
77148;SDS011;66122;47.130;16.844;2023-03-14T03:14:07;3.33;;;1.07;;
77148;SDS011;66122;47.130;16.844;2023-03-14T03:24:10;2.97;;;1.10;;
77148;SDS011;66122;47.130;16.844;2023-03-14T03:34:13;4.53;;;1.30;;
77148;SDS011;66122;47.130;16.844;2023-03-14T03:44:17;4.80;;;1.33;;
77148;SDS011;66122;47.130;16.844;2023-03-14T03:54:20;7.63;;;1.52;;
77148;SDS011;66122;47.130;16.844;2023-03-14T04:04:22;5.97;;;1.83;;
77148;SDS011;66122;47.130;16.844;2023-03-14T04:14:25;4.67;;;1.30;;
77148;SDS011;66122;47.130;16.844;2023-03-14T04:24:45;5.68;;;1.27;;
77148;SDS011;66122;47.130;16.844;2023-03-14T04:34:48;6.70;;;1.70;;
77148;SDS011;66122;47.130;16.844;2023-03-14T04:44:51;6.47;;;2.03;;
77148;SDS011;66122;47.130;16.844;2023-03-14T04:54:57;4.87;;;1.17;;
77148;SDS011;66122;47.130;16.844;2023-03-14T05:05:01;3.25;;;0.88;;
77148;SDS011;66122;47.130;16.844;2023-03-14T05:15:15;5.20;;;1.00;;
77148;SDS011;66122;47.130;16.844;2023-03-14T05:25:35;3.07;;;0.97;;
77148;SDS011;66122;47.130;16.844;2023-03-14T05:35:57;4.38;;;1.15;;
77148;SDS011;66122;47.130;16.844;2023-03-14T05:46:13;2.20;;;0.90;;
77148;SDS011;66122;47.130;16.844;2023-03-14T05:56:36;5.57;;;1.67;;
77148;SDS011;66122;47.130;16.844;2023-03-14T06:06:51;3.00;;;0.80;;
77148;SDS011;66122;47.130;16.844;2023-03-14T06:16:55;6.10;;;1.63;;
77148;SDS011;66122;47.130;16.844;2023-03-14T06:27:03;6.37;;;1.03;;
77148;SDS011;66122;47.130;16.844;2023-03-14T06:37:06;3.33;;;0.70;;
77148;SDS011;66122;47.130;16.844;2023-03-14T06:47:09;2.22;;;0.70;;
77148;SDS011;66122;47.130;16.844;2023-03-14T06:57:17;2.63;;;0.63;;
77148;SDS011;66122;47.130;16.844;2023-03-14T07:07:32;2.97;;;0.70;;
77148;SDS011;66122;47.130;16.844;2023-03-14T07:18:00;5.43;;;1.10;;
77148;SDS011;66122;47.130;16.844;2023-03-14T07:28:03;4.13;;;1.00;;
77148;SDS011;66122;47.130;16.844;2023-03-14T07:38:07;3.30;;;1.03;;
77148;SDS011;66122;47.130;16.844;2023-03-14T07:48:16;3.80;;;0.73;;
77148;SDS011;66122;47.130;16.844;2023-03-14T07:58:19;3.83;;;1.03;;
77148;SDS011;66122;47.130;16.844;2023-03-14T08:08:24;2.30;;;0.80;;
77148;SDS011;66122;47.130;16.844;2023-03-14T08:18:26;3.13;;;0.80;;
77148;SDS011;66122;47.130;16.844;2023-03-14T08:28:29;2.75;;;0.63;;
77148;SDS011;66122;47.130;16.844;2023-03-14T08:38:32;5.17;;;1.10;;
77148;SDS011;66122;47.130;16.844;2023-03-14T08:48:35;2.67;;;0.80;;
77148;SDS011;66122;47.130;16.844;2023-03-14T08:58:37;3.47;;;0.52;;
77148;SDS011;66122;47.130;16.844;2023-03-14T09:08:40;2.30;;;0.70;;
77148;SDS011;66122;47.130;16.844;2023-03-14T09:18:43;3.23;;;0.90;;
77148;SDS011;66122;47.130;16.844;2023-03-14T09:28:45;2.42;;;0.82;;
77148;SDS011;66122;47.130;16.844;2023-03-14T09:38:48;3.00;;;0.87;;
77148;SDS011;66122;47.130;16.844;2023-03-14T09:48:51;3.13;;;1.10;;
77148;SDS011;66122;47.130;16.844;2023-03-14T09:59:03;3.57;;;1.10;;
77148;SDS011;66122;47.130;16.844;2023-03-14T10:09:14;2.90;;;1.00;;
77148;SDS011;66122;47.130;16.844;2023-03-14T10:19:27;2.40;;;0.70;;
77148;SDS011;66122;47.130;16.844;2023-03-14T10:29:30;2.07;;;0.60;;
77148;SDS011;66122;47.130;16.844;2023-03-14T10:49:41;2.13;;;0.50;;
77148;SDS011;66122;47.130;16.844;2023-03-14T10:59:44;3.73;;;1.30;;
77148;SDS011;66122;47.130;16.844;2023-03-14T11:20:04;3.43;;;0.70;;
77148;SDS011;66122;47.130;16.844;2023-03-14T11:30:46;2.40;;;0.70;;
77148;SDS011;66122;47.130;16.844;2023-03-14T11:40:55;2.03;;;0.60;;
77148;SDS011;66122;47.130;16.844;2023-03-14T11:51:00;2.75;;;0.60;;
77148;SDS011;66122;47.130;16.844;2023-03-14T12:01:09;2.97;;;0.77;;
77148;SDS011;66122;47.130;16.844;2023-03-14T12:22:30;5.15;;;1.00;;
77148;SDS011;66122;47.130;16.844;2023-03-14T12:32:22;2.27;;;0.70;;
77148;SDS011;66122;47.130;16.844;2023-03-14T13:03:13;3.47;;;1.37;;
77148;SDS011;66122;47.130;16.844;2023-03-14T13:13:22;3.57;;;1.00;;
77148;SDS011;66122;47.130;16.844;2023-03-14T13:23:29;3.17;;;0.95;;
77148;SDS011;66122;47.130;16.844;2023-03-14T13:33:34;2.17;;;0.60;;
77148;SDS011;66122;47.130;16.844;2023-03-14T13:43:40;4.83;;;0.90;;
77148;SDS011;66122;47.130;16.844;2023-03-14T13:53:49;2.83;;;0.70;;
77148;SDS011;66122;47.130;16.844;2023-03-14T14:03:54;1.80;;;0.40;;
77148;SDS011;66122;47.130;16.844;2023-03-14T14:13:59;1.33;;;0.43;;
77148;SDS011;66122;47.130;16.844;2023-03-14T14:24:02;6.93;;;0.40;;
77148;SDS011;66122;47.130;16.844;2023-03-14T14:34:18;1.98;;;0.57;;
77148;SDS011;66122;47.130;16.844;2023-03-14T14:44:27;2.73;;;0.63;;
77148;SDS011;66122;47.130;16.844;2023-03-14T14:54:53;2.00;;;0.67;;
77148;SDS011;66122;47.130;16.844;2023-03-14T15:04:59;2.65;;;0.80;;
77148;SDS011;66122;47.130;16.844;2023-03-14T15:15:02;2.27;;;0.60;;
77148;SDS011;66122;47.130;16.844;2023-03-14T15:25:05;2.23;;;0.50;;
77148;SDS011;66122;47.130;16.844;2023-03-14T15:35:10;2.07;;;0.90;;
77148;SDS011;66122;47.130;16.844;2023-03-14T15:45:13;3.47;;;1.70;;
77148;SDS011;66122;47.130;16.844;2023-03-14T15:55:16;2.10;;;0.90;;
77148;SDS011;66122;47.130;16.844;2023-03-14T16:05:19;2.43;;;0.90;;
77148;SDS011;66122;47.130;16.844;2023-03-14T16:15:22;2.65;;;1.38;;
77148;SDS011;66122;47.130;16.844;2023-03-14T16:25:24;2.03;;;0.60;;
77148;SDS011;66122;47.130;16.844;2023-03-14T16:35:27;1.97;;;0.90;;
77148;SDS011;66122;47.130;16.844;2023-03-14T16:45:29;1.95;;;0.60;;
77148;SDS011;66122;47.130;16.844;2023-03-14T16:55:32;5.60;;;2.60;;
77148;SDS011;66122;47.130;16.844;2023-03-14T17:05:35;7.13;;;3.23;;
77148;SDS011;66122;47.130;16.844;2023-03-14T17:15:37;10.90;;;4.93;;
77148;SDS011;66122;47.130;16.844;2023-03-14T17:25:40;2.58;;;1.20;;
77148;SDS011;66122;47.130;16.844;2023-03-14T17:35:43;5.83;;;3.13;;
77148;SDS011;66122;47.130;16.844;2023-03-14T17:45:46;3.03;;;1.60;;
77148;SDS011;66122;47.130;16.844;2023-03-14T17:55:49;4.80;;;1.75;;
77148;SDS011;66122;47.130;16.844;2023-03-14T18:05:52;4.07;;;1.80;;
77148;SDS011;66122;47.130;16.844;2023-03-14T18:15:55;3.20;;;1.73;;
77148;SDS011;66122;47.130;16.844;2023-03-14T18:25:58;4.15;;;2.20;;
77148;SDS011;66122;47.130;16.844;2023-03-14T18:36:05;4.63;;;2.17;;
77148;SDS011;66122;47.130;16.844;2023-03-14T18:46:09;4.20;;;1.93;;
77148;SDS011;66122;47.130;16.844;2023-03-14T18:56:13;3.70;;;2.00;;
77148;SDS011;66122;47.130;16.844;2023-03-14T19:06:15;8.15;;;4.00;;
77148;SDS011;66122;47.130;16.844;2023-03-14T19:16:19;5.43;;;2.90;;
77148;SDS011;66122;47.130;16.844;2023-03-14T19:26:30;12.80;;;7.30;;
77148;SDS011;66122;47.130;16.844;2023-03-14T19:36:34;12.57;;;5.85;;
77148;SDS011;66122;47.130;16.844;2023-03-14T19:46:39;4.00;;;1.87;;
77148;SDS011;66122;47.130;16.844;2023-03-14T19:56:43;10.13;;;4.23;;
77148;SDS011;66122;47.130;16.844;2023-03-14T20:06:46;7.18;;;3.40;;
77148;SDS011;66122;47.130;16.844;2023-03-14T20:16:49;4.83;;;2.30;;
77148;SDS011;66122;47.130;16.844;2023-03-14T20:26:51;6.73;;;2.50;;
77148;SDS011;66122;47.130;16.844;2023-03-14T20:36:54;14.10;;;6.60;;
77148;SDS011;66122;47.130;16.844;2023-03-14T20:46:57;14.75;;;6.18;;
77148;SDS011;66122;47.130;16.844;2023-03-14T20:57:02;5.20;;;2.50;;
77148;SDS011;66122;47.130;16.844;2023-03-14T21:07:05;6.30;;;2.60;;
77148;SDS011;66122;47.130;16.844;2023-03-14T21:17:07;7.65;;;3.80;;
77148;SDS011;66122;47.130;16.844;2023-03-14T21:27:10;7.63;;;3.80;;
77148;SDS011;66122;47.130;16.844;2023-03-14T21:37:14;6.80;;;3.43;;
77148;SDS011;66122;47.130;16.844;2023-03-14T21:47:18;9.05;;;3.55;;
77148;SDS011;66122;47.130;16.844;2023-03-14T21:57:25;4.00;;;1.90;;
77148;SDS011;66122;47.130;16.844;2023-03-14T22:07:31;3.83;;;0.83;;
77148;SDS011;66122;47.130;16.844;2023-03-14T22:17:36;3.60;;;0.70;;
77148;SDS011;66122;47.130;16.844;2023-03-14T22:27:39;1.63;;;0.40;;
77148;SDS011;66122;47.130;16.844;2023-03-14T22:37:46;1.90;;;0.40;;
77148;SDS011;66122;47.130;16.844;2023-03-14T22:47:50;0.70;;;0.20;;
77148;SDS011;66122;47.130;16.844;2023-03-14T22:57:54;1.88;;;0.30;;
77148;SDS011;66122;47.130;16.844;2023-03-14T23:07:59;0.80;;;0.20;;
77148;SDS011;66122;47.130;16.844;2023-03-14T23:18:02;1.10;;;0.20;;
77148;SDS011;66122;47.130;16.844;2023-03-14T23:28:05;1.73;;;0.30;;
77148;SDS011;66122;47.130;16.844;2023-03-14T23:38:07;1.00;;;0.20;;
77148;SDS011;66122;47.130;16.844;2023-03-14T23:48:10;2.30;;;0.30;;
77148;SDS011;66122;47.130;16.844;2023-03-14T23:58:13;2.30;;;0.30;;
